Latest Coastal Weather Observations for Mornington Island Airport

IDQ60701

Issued at 9:43 am EST Friday 26 August 2016 (issued every 10 minutes, with the page automatically refreshed every 10 minutes)

About coastal observations | Map of coastal stations | Coastal observations for QLD | Marine services | Other Formats
Station Details ID: 029182 Name: MORNINGTON ISLAND AIRPORT Lat: -16.66 Lon: 139.17 Height: 9.0 m
Data from the previous 72 hours. | See also: Recent months at Mornington Island Airport
Date/Time
EST
Temp
°C
Wind Pressure Rain since
9am
mm
Weather Cloud Vis
km
Sea
Height
m
Swell
Dir  Spd
kts
Gust
kts
hPa Trend Height
m
Period
s
Dir
26/09:40am 20.4 SSE 15 28 1019.1 - 0.0 - - - - - - -
26/09:30am 20.6 SSE 14 24 1019.1 - 0.0 - - - - - - -
26/09:11am 19.9 SSE 16 30 1019.2 - 0.0 - - - - - - -
26/09:00am 20.1 SSE 17 25 1019.2 - 0.0 - - - - - - -
26/08:30am 19.8 SSE 16 26 1019.0 - 0.0 - - - - - - -
26/08:05am 19.4 SSE 15 27 1018.8 - 0.0 - - - - - - -
26/08:00am 19.5 SSE 14 28 1018.8 - 0.0 - - - - - - -
26/07:30am 19.1 SSE 16 27 1018.6 - 0.0 - - - - - - -
26/07:00am 18.8 SSE 15 25 1018.3 - 0.0 - - - - - - -
26/06:30am 18.9 SSE 15 25 1018.0 - 0.0 - - - - - - -
26/06:00am 19.1 SSE 16 27 1017.5 - 0.0 - - - - - - -
26/05:57am 19.2 SSE 15 25 1017.5 - 0.0 - - - - - - -
26/05:30am 19.4 SSE 16 25 1017.3 - 0.0 - - - - - - -
26/05:00am 19.8 SSE 17 27 1016.8 - 0.0 - - - - - - -
26/04:30am 19.9 SSE 15 28 1016.6 - 0.0 - - - - - - -
26/04:00am 20.3 SSE 16 28 1016.3 - 0.0 - - - - - - -
26/03:36am 20.7 SSE 16 26 1016.3 - 0.0 - - - - - - -
26/03:30am 20.7 SSE 14 23 1016.3 - 0.0 - - - - - - -
26/03:01am 21.2 SSE 15 26 1016.2 - 0.0 - - - - - - -
26/03:00am 21.2 SSE 15 24 1016.2 - 0.0 - - - - - - -
26/02:51am 21.4 SSE 15 25 1016.1 - 0.0 - - - - - - -
26/02:30am 21.3 S 12 23 1016.0 - 0.0 - - - - - - -
26/02:00am 21.6 S 12 21 1015.7 - 0.0 - - - - - - -
26/01:30am 21.9 S 12 21 1015.6 - 0.0 - - - - - - -
26/01:00am 22.1 S 9 15 1015.6 - 0.0 - - - - - - -
26/12:30am 22.3 S 9 14 1015.6 - 0.0 - - - - - - -
26/12:00am 22.3 S 8 14 1015.7 - 0.0 - - - - - - -
 
Date/Time
EST
Temp
°C
Wind Pressure Rain since
9am
mm
Weather Cloud Vis
km
Sea
Height
m
Swell
Dir  Spd
kts
Gust
kts
hPa Trend Height
m
Period
s
Dir
25/11:30pm 22.9 SSE 10 15 1015.7 - 0.0 - - - - - - -
25/11:00pm 22.6 S 8 12 1015.7 - 0.0 - - - - - - -
25/10:30pm 21.5 SSE 5 8 1015.3 - 0.0 - - - - - - -
25/10:00pm 20.6 SE 4 6 1015.0 - 0.0 - - - - - - -
25/09:30pm 20.4 SE 4 5 1014.9 - 0.0 - - - - - - -
25/09:00pm 21.3 ESE 6 8 1014.3 - 0.0 - - - - - - -
25/08:30pm 21.4 ESE 6 8 1014.1 - 0.0 - - - - - - -
25/08:00pm 21.9 ESE 7 9 1013.9 - 0.0 - - - - - - -
25/07:30pm 22.3 ESE 8 10 1013.6 - 0.0 - - - - - - -
25/07:00pm 22.9 ESE 9 11 1013.4 - 0.0 - - - - - - -
25/06:30pm 23.3 ESE 8 11 1013.3 - 0.0 - - - - - - -
25/06:00pm 23.7 ESE 10 15 1012.9 - 0.0 - - - - - - -
25/05:30pm 23.6 ESE 11 16 1012.6 - 0.0 - - - - - - -
25/05:00pm 23.6 SE 11 15 1012.5 - 0.0 - - - - - - -
25/04:30pm 24.3 SE 12 17 1012.4 - 0.0 - - - - - - -
25/04:00pm 24.2 SE 12 17 1012.4 - 0.0 - - - - - - -
25/03:30pm 23.9 SSE 11 17 1012.5 - 0.0 - - - - - - -
25/03:00pm 23.9 SE 12 17 1012.9 - 0.0 - - - - - - -
25/02:30pm 23.3 SE 13 20 1013.1 - 0.0 - - - - - - -
25/02:00pm 22.7 SSE 13 22 1013.5 - 0.0 - - - - - - -
25/01:30pm 22.7 SSE 12 21 1013.8 - 0.0 - - - - - - -
25/01:00pm 22.0 SSE 13 19 1014.1 - 0.0 - - - - - - -
25/12:30pm 22.0 SSE 14 21 1014.4 - 0.0 - - - - - - -
25/12:00pm 22.3 SSE 13 22 1014.9 - 0.0 - - - - - - -
25/11:30am 21.4 SSE 14 23 1015.2 - 0.0 - - - - - - -
25/11:00am 20.8 SSE 15 25 1015.5 - 0.0 - - - - - - -
25/10:52am 21.0 SSE 15 25 1015.5 - 0.0 - - - - - - -
25/10:30am 20.7 SSE 15 24 1015.6 - 0.0 - - - - - - -
25/10:00am 20.7 SSE 13 22 1015.4 - 0.0 - - - - - - -
25/09:30am 20.5 SSE 13 21 1015.2 - 0.0 - - - - - - -
25/09:00am 20.7 SSE 14 22 1015.1 - 1.4 - - - - - - -
25/08:30am 20.5 SSE 13 24 1014.9 - 1.4 - - - - - - -
25/08:00am 20.9 SSE 11 19 1014.7 - 1.4 - - - - - - -
25/07:30am 20.9 SE 12 20 1014.4 - 1.4 - - - - - - -
25/07:00am 21.0 SSE 11 21 1013.8 - 1.4 - - - - - - -
25/06:30am 21.1 SE 11 19 1013.3 - 1.4 - - - - - - -
25/06:00am 21.2 SE 12 19 1013.0 - 1.4 - - - - - - -
25/05:30am 21.4 SE 13 21 1012.8 - 1.4 - - - - - - -
25/05:00am 21.5 SE 12 19 1012.7 - 1.4 - - - - - - -
25/04:30am 21.7 SSE 13 22 1012.3 - 1.4 - - - - - - -
25/04:00am 21.7 SE 13 21 1012.2 - 1.4 - - - - - - -
25/03:30am 21.7 SE 13 21 1012.0 - 1.4 - - - - - - -
25/03:00am 21.8 SE 17 25 1011.4 - 1.4 - - - - - - -
25/02:30am 22.0 SE 14 20 1011.9 - 1.4 - - - - - - -
25/02:00am 22.2 SE 12 20 1012.3 - 1.4 - - - - - - -
25/01:30am 22.4 SE 13 19 1012.5 - 1.4 - - - - - - -
25/01:00am 22.7 SE 14 22 1012.5 - 1.4 - - - - - - -
25/12:30am 23.1 SE 12 21 1012.6 - 1.4 - - - - - - -
25/12:00am 23.5 SSE 10 15 1012.4 - 1.4 Recent precip. - - - - - -
 
Date/Time
EST
Temp
°C
Wind Pressure Rain since
9am
mm
Weather Cloud Vis
km
Sea
Height
m
Swell
Dir  Spd
kts
Gust
kts
hPa Trend Height
m
Period
s
Dir
24/11:30pm 23.4 SSE 6 10 1012.7 - 1.4 - - - - - - -
24/11:00pm 23.4 S 2 6 1012.8 - 1.2 - - - - - - -
24/10:30pm 23.7 SSE 7 13 1012.2 - 0.4 - - - - - - -
24/10:00pm 24.2 SE 9 14 1011.3 - 0.0 - - - - - - -
24/09:30pm 24.3 SSE 7 12 1011.5 - 0.0 - - - - - - -
24/09:00pm 24.4 SSE 8 13 1011.4 - 0.0 - - - - - - -
24/08:30pm 24.1 SSE 5 7 1011.1 - 0.0 - - - - - - -
24/08:00pm 24.4 W 3 4 1010.9 - 0.0 - - - - - - -
24/07:30pm 24.7 WNW 4 5 1010.4 - 0.0 - - - - - - -
24/07:00pm 24.9 NNW 5 6 1010.0 - 0.0 - - - - - - -
24/06:30pm 25.3 NW 6 7 1009.7 - 0.0 - - - - - - -
24/06:00pm 25.9 NNW 7 11 1009.5 - 0.0 - - - - - - -
24/05:30pm 26.4 N 10 14 1008.8 - 0.0 - - - - - - -
24/05:00pm 26.7 N 11 15 1008.7 - 0.0 - - - - - - -
24/04:30pm 27.0 NNW 11 14 1008.6 - 0.0 - - - - - - -
24/04:00pm 27.3 NNW 11 16 1008.5 - 0.0 - - - - - - -
24/03:30pm 27.4 NNW 13 19 1008.4 - 0.0 - - - - - - -
24/03:00pm 28.2 N 13 18 1008.4 - 0.0 - - - - - - -
24/02:30pm 28.0 NNW 15 20 1008.8 - 0.0 - - - - - - -
24/02:00pm 28.0 NNW 14 18 1009.0 - 0.0 - - - - - - -
24/01:30pm 27.7 NNW 14 17 1009.8 - 0.0 - - - - - - -
24/01:00pm 28.2 NNW 15 21 1009.8 - 0.0 - - - - - - -
24/12:30pm 28.0 NNW 14 17 1010.3 - 0.0 - - - - - - -
24/12:00pm 27.5 NNW 12 15 1010.9 - 0.0 - - - - - - -
24/11:30am 26.9 NNW 11 14 1011.3 - 0.0 - - - - - - -
24/11:00am 26.2 NNW 12 14 1011.6 - 0.0 - - - - - - -
24/10:30am 25.6 NNW 10 13 1012.0 - 0.0 - - - - - - -
24/10:00am 25.7 NNW 9 12 1012.1 - 0.0 - - - - - - -
24/09:30am 25.8 NNW 11 15 1012.0 - 0.0 - - - - - - -
24/09:00am 25.8 NNW 9 13 1011.8 - 0.0 - - - - - - -
24/08:30am 25.2 NNW 7 9 1011.6 - 0.0 - - - - - - -
24/08:00am 24.8 NW 7 9 1011.4 - 0.0 - - - - - - -
24/07:30am 24.7 NW 8 10 1011.2 - 0.0 - - - - - - -
24/07:00am 24.6 NW 10 12 1010.6 - 0.0 - - - - - - -
24/06:30am 24.2 NNW 10 12 1009.7 - 0.0 - - - - - - -
24/06:00am 24.3 NNW 11 15 1009.3 - 0.0 - - - - - - -
24/05:30am 24.2 NNW 12 15 1008.8 - 0.0 - - - - - - -
24/05:00am 24.1 NNW 10 12 1008.3 - 0.0 - - - - - - -
24/04:30am 23.7 NNW 9 13 1007.8 - 0.0 - - - - - - -
24/04:00am 23.8 N 9 11 1007.8 - 0.0 - - - - - - -
24/03:30am 23.8 N 10 14 1007.8 - 0.0 - - - - - - -
24/03:00am 23.9 N 11 16 1007.8 - 0.0 - - - - - - -
24/02:30am 23.9 N 11 16 1007.5 - 0.0 - - - - - - -
24/02:00am 23.9 N 10 13 1007.8 - 0.0 - - - - - - -
24/01:30am 24.0 N 10 14 1008.1 - 0.0 - - - - - - -
24/01:00am 24.0 N 9 11 1008.7 - 0.0 - - - - - - -
24/12:30am 24.1 N 9 14 1009.1 - 0.0 - - - - - - -
24/12:00am 24.1 NNW 8 11 1009.3 - 0.0 - - - - - - -
 
Date/Time
EST
Temp
°C
Wind Pressure Rain since
9am
mm
Weather Cloud Vis
km
Sea
Height
m
Swell
Dir  Spd
kts
Gust
kts
hPa Trend Height
m
Period
s
Dir
23/11:30pm 24.3 NNW 9 13 1009.5 - 0.0 - - - - - - -
23/11:00pm 24.0 NNW 7 10 1009.4 - 0.0 - - - - - - -
23/10:30pm 24.1 N 7 11 1009.5 - 0.0 - - - - - - -
23/10:00pm 24.2 N 7 9 1009.5 - 0.0 - - - - - - -
23/09:30pm 24.2 N 8 10 1009.5 - 0.0 - - - - - - -
23/09:00pm 24.2 N 8 11 1009.2 - 0.0 - - - - - - -
23/08:30pm 24.3 N 8 10 1009.0 - 0.0 - - - - - - -
23/08:00pm 24.4 N 8 11 1008.8 - 0.0 - - - - - - -
23/07:30pm 24.5 N 9 11 1008.6 - 0.0 - - - - - - -
23/07:00pm 24.6 N 9 11 1008.4 - 0.0 - - - - - - -
23/06:30pm 25.0 N 10 13 1008.2 - 0.0 - - - - - - -
23/06:00pm 25.7 NNW 11 14 1008.2 - 0.0 - - - - - - -
23/05:30pm 26.2 NNW 11 15 1008.0 - 0.0 - - - - - - -
23/05:00pm 26.8 NNW 12 17 1007.8 - 0.0 - - - - - - -
23/04:30pm 27.1 NNW 13 18 1007.7 - 0.0 - - - - - - -
23/04:00pm 27.4 NNW 13 16 1007.7 - 0.0 - - - - - - -
23/03:30pm 27.4 NNW 14 19 1007.8 - 0.0 - - - - - - -
23/03:00pm 27.7 NNW 14 19 1008.1 - 0.0 - - - - - - -
23/02:30pm 27.8 NNW 15 18 1008.3 - 0.0 - - - - - - -
23/02:00pm 27.9 NW 15 19 1008.8 - 0.0 - - - - - - -
23/01:30pm 28.3 NNW 15 19 1009.2 - 0.0 - - - - - - -
23/01:00pm 28.1 NNW 13 17 1009.7 - 0.0 - - - - - - -
23/12:30pm 27.9 NNW 15 19 1010.2 - 0.0 - - - - - - -
23/12:00pm 27.9 NNW 15 19 1010.6 - 0.0 - - - - - - -
23/11:30am 27.9 NNW 13 19 1011.0 - 0.0 - - - - - - -
23/11:00am 27.5 N 14 19 1011.5 - 0.0 - - - - - - -
23/10:30am 27.5 N 14 19 1011.5 - 0.0 - - - - - - -
23/10:00am 27.4 N 13 18 1011.4 - 0.0 - - - - - - -

Other Formats:

Comma delimited format used in spreadsheet applications
http://www.bom.gov.au/fwo/IDQ60701/IDQ60701.94254.axf

JavaScript Object Notation format (JSON) in row-major order
http://www.bom.gov.au/fwo/IDQ60701/IDQ60701.94254.json